Deux-Montagnes, Canada
Current Conditions -  °F | °C
As of 5:00 PM on Friday 24 Oct 2014 (Local Time) from CYUL Reporting Station
Broken Clouds Broken Clouds  
Wind Chill: 52°   Ceiling: 9000
Heat Index: 52°   Visibility: 15mi
Dew Point: 39°   Wind: 7mph
Humidity: 62%   Direction: 210°SSW
Pressure: 29.83"   Gusts: NA
Location:  45.53°N, 73.88°W
Report Text: CYUL 242100Z 21006KT 15SM SCT063 BKN090 BKN240 11/04 A2983 RMK SC4AC2CI1 SLP103
Loading
Personal Weather Stations






























Interactive Weather Map
Tropical Storm Tracking
New forecast layout! Learn more

10-Day Weather Forecast

Advertisements
Track Severe Weather on mobile